createdAt,value
2019-03-06T00:00:08.725Z,8.78
2019-03-06T00:02:45.473Z,8.55
2019-03-06T00:05:16.742Z,10.32
2019-03-06T00:07:47.650Z,8.88
2019-03-06T00:10:23.895Z,9.23
2019-03-06T00:12:54.365Z,8.68
2019-03-06T00:15:25.498Z,8.55
2019-03-06T00:17:55.767Z,9.58
2019-03-06T00:20:26.035Z,9.08
2019-03-06T00:22:56.561Z,8.40
2019-03-06T00:25:27.193Z,7.90
2019-03-06T00:27:57.496Z,9.03
2019-03-06T00:30:28.261Z,8.63
2019-03-06T00:32:58.814Z,9.38
2019-03-06T00:35:32.865Z,9.53
2019-03-06T00:38:03.646Z,8.53
2019-03-06T00:41:02.999Z,7.35
2019-03-06T00:43:33.387Z,9.23
2019-03-06T00:46:04.313Z,7.15
2019-03-06T00:48:35.089Z,9.68
2019-03-06T00:51:05.705Z,9.10
2019-03-06T00:53:36.287Z,8.38
2019-03-06T00:56:06.491Z,7.58
2019-03-06T00:58:36.913Z,8.93
2019-03-06T01:01:07.106Z,9.20
2019-03-06T01:03:37.738Z,10.63
2019-03-06T01:06:08.583Z,10.32
2019-03-06T01:08:39.801Z,9.68
2019-03-06T01:11:09.974Z,9.13
2019-03-06T01:13:39.951Z,6.58
2019-03-06T01:16:10.534Z,8.93
2019-03-06T01:18:40.924Z,8.23
2019-03-06T01:21:12.149Z,8.08
2019-03-06T01:23:42.704Z,7.92
2019-03-06T01:26:13.546Z,8.55
2019-03-06T01:28:43.977Z,8.38
2019-03-06T01:31:14.399Z,7.00
2019-03-06T01:34:23.643Z,7.08
2019-03-06T01:37:09.347Z,8.55
2019-03-06T01:40:08.130Z,8.55
2019-03-06T01:42:51.381Z,6.25
2019-03-06T01:45:21.458Z,8.73
2019-03-06T01:47:51.897Z,8.35
2019-03-06T01:50:22.795Z,8.88
2019-03-06T01:52:53.267Z,7.72
2019-03-06T01:55:23.684Z,8.30
2019-03-06T01:57:54.002Z,9.55
2019-03-06T02:00:24.781Z,9.98
2019-03-06T02:02:55.647Z,9.88
2019-03-06T02:05:26.714Z,8.28
2019-03-06T02:07:57.554Z,9.70
2019-03-06T02:10:28.750Z,10.18
2019-03-06T02:12:59.429Z,12.15
2019-03-06T02:15:29.845Z,10.70
2019-03-06T02:18:00.459Z,8.18
2019-03-06T02:20:30.951Z,11.00
2019-03-06T02:23:01.087Z,10.00
2019-03-06T02:25:31.413Z,9.93
2019-03-06T02:28:01.799Z,7.30
2019-03-06T02:30:32.010Z,12.50
2019-03-06T02:33:01.420Z,11.70
2019-03-06T02:35:31.707Z,12.47
2019-03-06T02:38:01.187Z,10.43
2019-03-06T02:40:30.445Z,11.88
2019-03-06T02:43:00.205Z,10.78
2019-03-06T02:45:29.949Z,11.60
2019-03-06T02:47:59.900Z,10.88
2019-03-06T02:50:29.325Z,11.70
2019-03-06T02:52:58.447Z,12.80
2019-03-06T02:55:27.406Z,11.88
2019-03-06T02:58:18.749Z,10.98
2019-03-06T03:01:22.231Z,9.28
2019-03-06T03:04:04.929Z,10.03
2019-03-06T03:06:39.702Z,11.18
2019-03-06T03:09:16.069Z,10.53
2019-03-06T03:11:46.174Z,12.20
2019-03-06T03:14:16.378Z,9.45
2019-03-06T03:16:46.478Z,12.73
2019-03-06T03:19:16.583Z,10.32
2019-03-06T03:21:46.709Z,12.90
2019-03-06T03:24:16.720Z,11.45
2019-03-06T03:26:46.664Z,11.70
2019-03-06T03:29:16.953Z,11.75
2019-03-06T03:31:46.935Z,10.78
2019-03-06T03:34:17.464Z,10.45
2019-03-06T03:36:48.588Z,10.13
2019-03-06T03:39:18.786Z,7.03
2019-03-06T03:41:49.352Z,9.78
2019-03-06T03:44:19.934Z,11.28
2019-03-06T03:46:50.302Z,9.30
2019-03-06T03:49:20.260Z,10.20
2019-03-06T03:51:50.280Z,11.53
2019-03-06T03:54:20.498Z,9.55
2019-03-06T03:56:50.577Z,9.75
2019-03-06T03:59:20.590Z,3.50
2019-03-06T04:01:50.836Z,3.37
2019-03-06T04:04:21.439Z,1.72
2019-03-06T04:06:52.227Z,1.60
2019-03-06T04:09:23.891Z,1.22
2019-03-06T04:11:54.327Z,1.30
2019-03-06T04:14:24.938Z,1.60
2019-03-06T04:16:55.546Z,0.90
2019-03-06T04:19:27.761Z,1.37
2019-03-06T04:21:58.977Z,1.32
2019-03-06T04:24:29.629Z,1.90
2019-03-06T04:27:00.005Z,1.27
2019-03-06T04:29:30.938Z,0.80
2019-03-06T04:32:01.344Z,2.15
2019-03-06T04:34:31.597Z,1.65
2019-03-06T04:37:03.846Z,1.67
2019-03-06T04:39:34.302Z,1.40
2019-03-06T04:42:04.800Z,1.82
2019-03-06T04:44:34.955Z,1.92
2019-03-06T04:47:06.287Z,1.75
2019-03-06T04:49:37.209Z,1.30
2019-03-06T04:52:07.493Z,1.85
2019-03-06T04:54:39.044Z,1.70
2019-03-06T04:57:10.977Z,2.15
2019-03-06T04:59:42.261Z,1.40
2019-03-06T05:02:13.655Z,2.55
2019-03-06T05:04:44.844Z,3.05
2019-03-06T05:07:15.321Z,2.72
2019-03-06T05:09:45.562Z,2.30
2019-03-06T05:12:16.125Z,1.42
2019-03-06T05:14:46.673Z,2.50
2019-03-06T05:17:26.426Z,2.42
2019-03-06T05:19:58.422Z,3.10
2019-03-06T05:22:28.998Z,2.87
2019-03-06T05:24:59.920Z,2.55
2019-03-06T05:27:30.889Z,2.67
2019-03-06T05:30:03.391Z,3.25
2019-03-06T05:32:36.360Z,2.85
2019-03-06T05:35:39.180Z,2.22
2019-03-06T05:38:34.114Z,1.55
2019-03-06T05:43:35.086Z,2.70
2019-03-06T05:46:06.167Z,1.87
2019-03-06T05:48:37.444Z,1.87
2019-03-06T05:51:08.100Z,3.02
2019-03-06T05:53:39.761Z,2.77
2019-03-06T05:56:10.482Z,2.35
2019-03-06T05:58:40.975Z,4.60
2019-03-06T06:01:11.569Z,3.90
2019-03-06T06:03:42.259Z,2.35
2019-03-06T06:06:12.859Z,2.22
2019-03-06T06:08:43.497Z,3.50
2019-03-06T06:11:13.985Z,2.55
2019-03-06T06:13:48.261Z,3.30
2019-03-06T06:16:22.389Z,2.60
2019-03-06T06:18:53.009Z,2.37
2019-03-06T06:21:53.131Z,2.58
2019-03-06T06:24:26.564Z,3.58
2019-03-06T06:26:58.945Z,2.30
2019-03-06T06:29:31.590Z,1.42
2019-03-06T06:32:02.288Z,2.92
2019-03-06T06:34:32.896Z,2.80
2019-03-06T06:37:03.735Z,2.00
2019-03-06T06:39:38.355Z,2.98
2019-03-06T06:42:09.836Z,2.55
2019-03-06T06:44:40.381Z,3.12
2019-03-06T06:47:10.813Z,2.25
2019-03-06T06:49:42.769Z,2.42
2019-03-06T06:52:46.311Z,2.30
2019-03-06T06:55:55.571Z,1.80
2019-03-06T06:59:03.540Z,2.30
2019-03-06T07:02:14.446Z,3.27
2019-03-06T07:05:22.036Z,2.98
2019-03-06T07:08:08.845Z,2.02
2019-03-06T07:10:47.256Z,1.87
2019-03-06T07:13:29.825Z,2.35
2019-03-06T07:16:21.900Z,3.33
2019-03-06T07:19:15.340Z,2.25
2019-03-06T07:22:21.068Z,2.10
2019-03-06T07:25:17.675Z,2.00
2019-03-06T07:28:14.163Z,2.40
2019-03-06T07:31:07.306Z,2.27
2019-03-06T07:33:50.923Z,3.15
2019-03-06T07:36:43.005Z,1.87
2019-03-06T07:39:25.346Z,2.35
2019-03-06T07:42:25.525Z,2.70
2019-03-06T07:46:06.034Z,1.57
2019-03-06T07:48:57.975Z,2.00
2019-03-06T07:52:00.414Z,1.52
2019-03-06T07:54:39.167Z,6.08
2019-03-06T07:57:38.157Z,1.90
2019-03-06T08:00:17.557Z,1.67
2019-03-06T08:03:21.229Z,1.67
2019-03-06T08:05:52.018Z,1.90
2019-03-06T08:08:23.342Z,2.10
2019-03-06T08:10:54.946Z,2.22
2019-03-06T08:13:47.160Z,2.10
2019-03-06T08:16:28.715Z,2.25
2019-03-06T08:19:13.225Z,2.95
2019-03-06T08:21:53.613Z,2.55
2019-03-06T08:24:40.192Z,2.40
2019-03-06T08:27:11.441Z,2.35
2019-03-06T08:29:43.860Z,2.90
2019-03-06T08:32:22.380Z,2.00
2019-03-06T08:34:53.537Z,2.52
2019-03-06T08:37:24.331Z,2.40
2019-03-06T08:39:55.309Z,2.90
2019-03-06T08:42:25.876Z,3.58
2019-03-06T08:44:56.465Z,2.12
2019-03-06T08:47:47.557Z,2.60
2019-03-06T08:50:35.054Z,3.85
2019-03-06T08:53:36.108Z,2.45
2019-03-06T08:56:23.052Z,1.70
2019-03-06T08:59:02.675Z,2.42
2019-03-06T09:02:00.702Z,2.17
2019-03-06T09:04:36.673Z,2.08
2019-03-06T09:07:35.514Z,2.95
2019-03-06T09:10:28.669Z,2.02
2019-03-06T09:13:21.960Z,2.33
2019-03-06T09:16:27.931Z,3.80
2019-03-06T09:19:16.715Z,2.40
2019-03-06T09:21:55.968Z,2.85
2019-03-06T09:24:44.244Z,2.12
2019-03-06T09:30:36.957Z,2.12
2019-03-06T09:33:12.811Z,2.67
2019-03-06T09:39:30.545Z,2.10
2019-03-06T09:42:34.609Z,1.72
2019-03-06T09:45:32.723Z,2.90
2019-03-06T09:48:27.918Z,1.80
2019-03-06T09:51:18.659Z,2.22
2019-03-06T09:54:04.721Z,2.98
2019-03-06T09:57:04.846Z,2.72
2019-03-06T09:59:55.552Z,1.75
2019-03-06T10:03:00.819Z,1.62
2019-03-06T10:05:42.121Z,2.67
2019-03-06T10:08:31.455Z,1.15
2019-03-06T10:11:20.120Z,2.45
2019-03-06T10:14:23.477Z,2.22
2019-03-06T10:17:00.258Z,1.98
2019-03-06T10:19:53.403Z,2.22
2019-03-06T10:22:24.699Z,1.87
2019-03-06T10:28:06.187Z,1.45
2019-03-06T10:30:33.769Z,1.20
2019-03-06T10:33:06.349Z,1.72
2019-03-06T10:35:39.741Z,1.10
2019-03-06T10:38:16.510Z,1.98
2019-03-06T10:40:44.286Z,2.12
2019-03-06T10:43:19.359Z,2.22
2019-03-06T10:45:50.839Z,1.77
2019-03-06T10:48:25.746Z,1.30
2019-03-06T10:50:56.227Z,1.27
2019-03-06T10:53:29.928Z,1.62
2019-03-06T10:56:01.839Z,0.88
2019-03-06T10:58:35.065Z,2.00
2019-03-06T11:01:07.645Z,1.90
2019-03-06T11:03:47.041Z,1.72
2019-03-06T11:06:19.382Z,1.90
2019-03-06T11:08:50.786Z,1.45
2019-03-06T11:11:21.904Z,1.90
2019-03-06T11:13:53.922Z,2.00
2019-03-06T11:16:25.268Z,1.15
2019-03-06T11:18:56.854Z,1.40
2019-03-06T11:21:28.627Z,1.67
2019-03-06T11:24:00.879Z,1.00
2019-03-06T11:26:34.044Z,1.72
2019-03-06T11:29:06.884Z,2.17
2019-03-06T11:31:41.640Z,1.00
2019-03-06T11:34:16.033Z,1.70
2019-03-06T11:36:55.218Z,0.95
2019-03-06T11:39:28.816Z,1.17
2019-03-06T11:42:02.559Z,1.40
2019-03-06T11:44:35.387Z,1.20
2019-03-06T11:47:06.754Z,1.52
2019-03-06T11:49:37.395Z,1.62
2019-03-06T11:52:11.223Z,1.92
2019-03-06T11:54:42.829Z,1.85
2019-03-06T11:57:16.067Z,1.40
2019-03-06T11:59:47.351Z,1.85
2019-03-06T12:02:18.880Z,1.55
2019-03-06T12:04:50.627Z,1.20
2019-03-06T12:07:22.680Z,1.12
2019-03-06T12:09:55.983Z,1.60
2019-03-06T12:12:26.921Z,1.30
2019-03-06T12:14:57.655Z,1.00
2019-03-06T12:17:27.895Z,1.22
2019-03-06T12:20:07.542Z,1.75
2019-03-06T12:22:32.468Z,1.15
2019-03-06T12:25:06.073Z,0.95
2019-03-06T12:27:38.064Z,1.27
2019-03-06T12:30:10.156Z,1.47
2019-03-06T12:32:42.460Z,1.90
2019-03-06T12:35:13.242Z,0.70
2019-03-06T12:37:47.143Z,1.05
2019-03-06T12:40:17.423Z,1.17
2019-03-06T12:42:48.074Z,1.52
2019-03-06T12:45:21.499Z,1.47
2019-03-06T12:47:55.386Z,0.90
2019-03-06T12:50:26.526Z,0.90
2019-03-06T12:52:58.763Z,1.42
2019-03-06T12:55:29.473Z,1.12
2019-03-06T12:58:00.209Z,0.93
2019-03-06T13:00:31.019Z,1.25
2019-03-06T13:03:02.902Z,1.87
2019-03-06T13:05:35.409Z,1.47
2019-03-06T13:08:05.647Z,1.35
2019-03-06T13:10:36.378Z,1.30
2019-03-06T13:13:07.947Z,0.68
2019-03-06T13:15:38.138Z,0.45
2019-03-06T13:18:11.000Z,1.50
2019-03-06T13:20:42.195Z,0.90
2019-03-06T13:23:12.565Z,1.15
2019-03-06T13:25:43.396Z,0.80
2019-03-06T13:28:15.059Z,1.15
2019-03-06T13:30:49.191Z,1.60
2019-03-06T13:33:48.365Z,1.42
2019-03-06T13:45:33.799Z,1.37
2019-03-06T13:48:05.063Z,1.00
2019-03-06T13:50:46.457Z,1.30
2019-03-06T14:30:36.947Z,1.50
2019-03-06T14:33:53.120Z,0.90
2019-03-06T14:36:33.387Z,1.40
2019-03-06T14:39:26.374Z,1.30
2019-03-06T14:42:02.040Z,1.57
2019-03-06T14:44:33.766Z,1.65
2019-03-06T14:47:05.572Z,1.55
2019-03-06T14:49:39.523Z,1.40
2019-03-06T14:52:10.229Z,1.20
2019-03-06T14:54:47.496Z,1.57
2019-03-06T14:57:19.979Z,1.20
2019-03-06T14:59:50.686Z,1.65
2019-03-06T15:02:24.260Z,1.80
2019-03-06T15:07:48.546Z,1.30
2019-03-06T15:10:21.725Z,1.35
2019-03-06T15:12:54.038Z,1.12
2019-03-06T15:15:28.815Z,1.20
2019-03-06T15:18:10.140Z,1.07
2019-03-06T15:20:47.220Z,1.32
2019-03-06T15:23:18.595Z,1.27
2019-03-06T15:28:56.865Z,1.90
2019-03-06T15:31:46.464Z,1.65
2019-03-06T15:37:24.941Z,0.88
2019-03-06T15:39:56.692Z,1.45
2019-03-06T15:42:27.207Z,1.92
2019-03-06T15:44:58.457Z,1.00
2019-03-06T15:47:33.592Z,1.85
2019-03-06T15:50:01.876Z,0.82
2019-03-06T15:52:32.641Z,2.10
2019-03-06T15:55:03.313Z,1.85
2019-03-06T15:57:34.839Z,2.17
2019-03-06T16:00:13.005Z,1.98
2019-03-06T16:02:44.342Z,1.52
2019-03-06T16:05:16.498Z,2.10
2019-03-06T16:07:47.877Z,2.27
2019-03-06T16:10:20.182Z,1.65
2019-03-06T16:12:50.897Z,0.90
2019-03-06T16:15:21.685Z,1.70
2019-03-06T16:17:52.495Z,1.50
2019-03-06T16:20:23.416Z,1.30
2019-03-06T16:22:54.407Z,1.70
2019-03-06T16:25:36.400Z,1.27
2019-03-06T16:28:00.041Z,1.62
2019-03-06T16:30:31.025Z,1.98
2019-03-06T16:33:12.935Z,1.67
2019-03-06T16:35:46.060Z,1.90
2019-03-06T16:38:16.909Z,1.30
2019-03-06T16:40:49.873Z,1.27
2019-03-06T16:43:21.879Z,1.72
2019-03-06T16:45:53.203Z,1.60
2019-03-06T16:48:24.338Z,1.40
2019-03-06T16:50:54.976Z,1.72
2019-03-06T16:53:25.634Z,1.85
2019-03-06T16:55:56.068Z,1.22
2019-03-06T16:58:26.741Z,1.82
2019-03-06T17:00:57.833Z,9.65
2019-03-06T17:03:28.464Z,2.72
2019-03-06T17:05:59.687Z,1.50
2019-03-06T17:08:36.184Z,1.00
2019-03-06T17:11:11.085Z,1.20
2019-03-06T17:13:42.530Z,2.10
2019-03-06T17:16:20.311Z,1.90
2019-03-06T17:19:03.423Z,2.20
2019-03-06T17:21:46.957Z,2.25
2019-03-06T17:24:20.183Z,1.60
2019-03-06T17:26:51.491Z,1.80
2019-03-06T17:29:22.734Z,1.82
2019-03-06T17:31:54.377Z,1.80
2019-03-06T17:34:25.363Z,2.70
2019-03-06T17:36:56.635Z,2.95
2019-03-06T17:39:27.506Z,1.85
2019-03-06T17:41:58.168Z,1.45
2019-03-06T17:44:28.929Z,1.60
2019-03-06T17:46:59.766Z,2.05
2019-03-06T17:49:37.056Z,1.67
2019-03-06T17:55:14.135Z,2.27
2019-03-06T17:57:59.059Z,1.82
2019-03-06T18:07:12.210Z,1.12
2019-03-06T18:09:50.627Z,2.22
2019-03-06T18:12:37.188Z,1.40
2019-03-06T18:15:18.256Z,1.95
2019-03-06T18:18:10.084Z,1.80
2019-03-06T18:23:57.874Z,1.67
2019-03-06T18:26:28.470Z,1.17
2019-03-06T18:28:59.771Z,1.70
2019-03-06T18:31:30.767Z,1.35
2019-03-06T18:34:03.914Z,1.25
2019-03-06T18:36:34.622Z,2.37
2019-03-06T18:39:13.082Z,1.77
2019-03-06T18:41:44.241Z,1.55
2019-03-06T18:44:19.714Z,1.92
2019-03-06T18:46:52.866Z,2.00
2019-03-06T18:49:24.557Z,1.90
2019-03-06T18:51:55.829Z,2.62
2019-03-06T18:54:25.845Z,2.00
2019-03-06T18:56:56.785Z,2.58
2019-03-06T18:59:29.791Z,1.95
2019-03-06T19:02:00.157Z,1.85
2019-03-06T19:04:31.507Z,3.25
2019-03-06T19:07:01.855Z,2.72
2019-03-06T19:09:33.205Z,2.00
2019-03-06T19:12:05.045Z,2.45
2019-03-06T19:14:37.816Z,2.50
2019-03-06T19:17:40.604Z,2.95
2019-03-06T19:26:43.594Z,2.50
2019-03-06T19:29:18.119Z,1.80
2019-03-06T19:31:48.768Z,2.08
2019-03-06T19:34:19.912Z,1.85
2019-03-06T19:36:51.365Z,2.25
2019-03-06T19:39:24.979Z,2.90
2019-03-06T19:41:59.656Z,2.47
2019-03-06T19:44:37.037Z,2.20
2019-03-06T19:47:09.765Z,2.00
2019-03-06T19:49:45.832Z,3.37
2019-03-06T19:52:17.848Z,2.40
2019-03-06T19:54:51.122Z,1.80
2019-03-06T19:57:21.528Z,2.55
2019-03-06T19:59:52.220Z,1.85
2019-03-06T20:02:23.516Z,3.42
2019-03-06T20:04:54.331Z,2.02
2019-03-06T20:07:26.479Z,2.08
2019-03-06T20:09:57.822Z,1.92
2019-03-06T20:12:30.267Z,1.57
2019-03-06T20:15:14.160Z,2.20
2019-03-06T20:20:28.291Z,8.23
2019-03-06T20:23:06.337Z,2.22
2019-03-06T20:25:40.973Z,2.05
2019-03-06T20:28:16.142Z,1.90
2019-03-06T20:30:46.750Z,1.90
2019-03-06T20:33:18.105Z,1.82
2019-03-06T20:35:49.796Z,2.27
2019-03-06T20:38:20.546Z,3.05
2019-03-06T20:40:51.603Z,1.70
2019-03-06T20:43:22.194Z,2.80
2019-03-06T20:45:53.523Z,2.95
2019-03-06T20:48:25.270Z,2.30
2019-03-06T20:50:56.073Z,3.27
2019-03-06T20:53:26.713Z,3.00
2019-03-06T20:55:58.358Z,2.50
2019-03-06T20:58:28.702Z,2.83
2019-03-06T21:01:00.020Z,2.00
2019-03-06T21:03:31.099Z,3.70
2019-03-06T21:06:02.117Z,3.35
2019-03-06T21:08:33.113Z,1.98
2019-03-06T21:11:07.299Z,2.83
2019-03-06T21:13:37.944Z,2.45
2019-03-06T21:16:08.459Z,2.77
2019-03-06T21:18:43.543Z,2.58
2019-03-06T21:21:16.276Z,2.35
2019-03-06T21:23:48.287Z,10.53
2019-03-06T21:30:14.167Z,2.20
2019-03-06T21:32:44.424Z,2.80
2019-03-06T21:35:15.295Z,3.55
2019-03-06T21:37:48.089Z,2.85
2019-03-06T21:40:18.423Z,3.22
2019-03-06T21:42:48.713Z,3.33
2019-03-06T21:45:20.203Z,2.40
2019-03-06T21:47:51.090Z,2.55
2019-03-06T21:50:21.802Z,2.05
2019-03-06T21:52:52.401Z,3.85
2019-03-06T21:55:22.528Z,2.20
2019-03-06T21:57:54.233Z,2.60
2019-03-06T22:00:25.650Z,2.22
2019-03-06T22:02:57.002Z,2.55
2019-03-06T22:05:28.711Z,2.33
2019-03-06T22:07:59.651Z,1.25
2019-03-06T22:10:30.558Z,2.47
2019-03-06T22:13:01.029Z,1.87
2019-03-06T22:15:31.318Z,2.02
2019-03-06T22:18:01.337Z,2.20
2019-03-06T22:20:32.155Z,2.20
2019-03-06T22:23:02.793Z,2.12
2019-03-06T22:25:33.166Z,2.50
2019-03-06T22:28:04.085Z,2.15
2019-03-06T22:30:35.497Z,2.80
2019-03-06T22:33:06.355Z,2.10
2019-03-06T22:35:36.625Z,1.70
2019-03-06T22:38:07.073Z,2.30
2019-03-06T22:40:37.406Z,1.92
2019-03-06T22:43:08.228Z,2.12
2019-03-06T22:45:39.338Z,2.25
2019-03-06T22:48:10.029Z,2.25
2019-03-06T22:50:41.399Z,2.42
2019-03-06T22:53:12.163Z,2.22
2019-03-06T22:55:44.309Z,2.17
2019-03-06T22:58:14.606Z,2.05
2019-03-06T23:01:14.440Z,2.10
2019-03-06T23:03:45.100Z,2.00
2019-03-06T23:06:16.066Z,2.10
2019-03-06T23:08:46.618Z,2.17
2019-03-06T23:11:17.603Z,1.70
2019-03-06T23:13:48.767Z,1.70
2019-03-06T23:16:20.626Z,2.15
2019-03-06T23:18:51.639Z,2.12
2019-03-06T23:21:22.237Z,2.50
2019-03-06T23:23:52.674Z,2.27
2019-03-06T23:26:23.665Z,2.95
2019-03-06T23:28:53.963Z,2.08
2019-03-06T23:31:24.468Z,2.15
2019-03-06T23:33:54.643Z,2.10
2019-03-06T23:36:25.071Z,1.72
2019-03-06T23:38:57.965Z,1.72
2019-03-06T23:41:27.946Z,2.10
2019-03-06T23:43:57.864Z,2.35
2019-03-06T23:46:29.199Z,2.15
2019-03-06T23:48:59.333Z,1.67
2019-03-06T23:51:34.232Z,2.02
2019-03-06T23:54:04.124Z,1.80
2019-03-06T23:56:34.628Z,2.12
2019-03-06T23:59:04.793Z,2.25
